Archival Weather

Sydney Intl

Sydney, Australia (YSSY)

Report from: Wednesday, September 20, 2023 12:45 PM AEST
Current time: Sunday, July 14, 2024 12:08 PM AEST

Current weather – Weather history – Daily summaries
Weather forecast

Temperature33.0°C (91.4°F)
Heat index30.6°C (87.1°F)
Dew point0.0°C (32.0°F)
Winds 21 kts (10.8 m/s, 24.2 mph) Northwest (320°)
Wind gusts 31 kts (15.9 m/s, 35.7 mph)
Clouds Sky clear
Altimeter29.71 in.Hg (1006 mB)
Relative humidity12 %
Density altitude2,391 ft. (729 m)
Remarks Ceiling and visibility OK
Special weather observation
Flight conditions Visual Meteorological Conditions
Raw dataSPAU31 KWBC 200252 SPECI YSSY 200245Z 32021G31KT CAVOK 33/00 Q1006
An error has occurred. This application may no longer respond until reloaded. Reload 🗙